createdAt,value
2018-03-16T00:04:45.885Z,4.40
2018-03-16T00:07:14.388Z,5.30
2018-03-16T00:09:42.673Z,5.23
2018-03-16T00:12:11.384Z,5.03
2018-03-16T00:14:39.931Z,5.23
2018-03-16T00:17:09.057Z,5.27
2018-03-16T00:19:36.865Z,6.40
2018-03-16T00:22:04.683Z,7.33
2018-03-16T00:24:35.656Z,5.20
2018-03-16T00:27:07.168Z,6.80
2018-03-16T00:29:35.112Z,6.10
2018-03-16T00:32:02.819Z,6.47
2018-03-16T00:34:30.812Z,7.73
2018-03-16T00:36:58.943Z,6.00
2018-03-16T00:39:26.888Z,6.93
2018-03-16T00:41:54.778Z,4.17
2018-03-16T00:44:22.726Z,5.13
2018-03-16T00:46:51.589Z,5.20
2018-03-16T00:49:19.583Z,6.00
2018-03-16T00:51:48.635Z,5.73
2018-03-16T00:54:17.525Z,8.13
2018-03-16T00:56:45.351Z,4.70
2018-03-16T00:59:13.235Z,8.40
2018-03-16T01:01:41.385Z,5.83
2018-03-16T01:04:09.567Z,5.23
2018-03-16T01:06:37.874Z,6.20
2018-03-16T01:09:06.454Z,8.53
2018-03-16T01:11:34.197Z,4.60
2018-03-16T01:14:02.319Z,5.03
2018-03-16T01:16:32.297Z,6.77
2018-03-16T01:19:01.332Z,4.53
2018-03-16T01:21:29.566Z,4.73
2018-03-16T01:23:57.449Z,6.90
2018-03-16T01:26:25.317Z,5.10
2018-03-16T01:28:53.481Z,7.80
2018-03-16T01:31:21.624Z,5.13
2018-03-16T01:33:51.120Z,4.93
2018-03-16T01:36:18.991Z,5.90
2018-03-16T01:38:47.698Z,4.63
2018-03-16T01:41:17.805Z,5.00
2018-03-16T01:43:49.139Z,4.23
2018-03-16T01:46:17.674Z,5.00
2018-03-16T01:48:45.435Z,7.63
2018-03-16T01:51:13.264Z,5.03
2018-03-16T01:53:41.260Z,4.93
2018-03-16T01:56:10.121Z,4.67
2018-03-16T01:58:38.362Z,5.70
2018-03-16T02:01:07.055Z,4.90
2018-03-16T02:03:35.003Z,3.67
2018-03-16T02:06:04.129Z,4.00
2018-03-16T02:08:32.709Z,4.13
2018-03-16T02:11:00.635Z,4.27
2018-03-16T02:13:29.450Z,4.90
2018-03-16T02:15:57.997Z,4.60
2018-03-16T02:18:25.995Z,3.83
2018-03-16T02:20:55.543Z,4.07
2018-03-16T02:23:23.628Z,4.60
2018-03-16T02:25:51.638Z,6.60
2018-03-16T02:28:19.409Z,4.27
2018-03-16T02:30:47.978Z,4.37
2018-03-16T02:33:17.003Z,4.67
2018-03-16T02:35:44.950Z,4.60
2018-03-16T02:38:14.208Z,5.13
2018-03-16T02:40:42.725Z,4.47
2018-03-16T02:43:11.514Z,5.00
2018-03-16T02:45:39.537Z,3.70
2018-03-16T02:48:07.391Z,6.80
2018-03-16T02:50:35.252Z,4.20
2018-03-16T02:53:03.189Z,6.60
2018-03-16T02:55:31.041Z,5.57
2018-03-16T02:57:59.961Z,4.70
2018-03-16T03:00:28.736Z,5.17
2018-03-16T03:02:56.691Z,5.90
2018-03-16T03:05:24.460Z,5.40
2018-03-16T03:07:52.415Z,5.53
2018-03-16T03:10:20.067Z,4.60
2018-03-16T03:12:48.845Z,6.13
2018-03-16T03:15:16.605Z,7.37
2018-03-16T03:17:44.562Z,4.37
2018-03-16T03:20:12.270Z,6.80
2018-03-16T03:22:40.072Z,4.03
2018-03-16T03:25:07.787Z,4.37
2018-03-16T03:27:35.560Z,3.90
2018-03-16T03:30:04.113Z,7.80
2018-03-16T03:32:32.216Z,6.60
2018-03-16T03:35:00.082Z,4.70
2018-03-16T03:37:28.169Z,4.33
2018-03-16T03:39:55.981Z,5.80
2018-03-16T03:42:24.558Z,4.47
2018-03-16T03:44:52.354Z,4.30
2018-03-16T03:47:20.837Z,4.80
2018-03-16T03:49:49.416Z,5.27
2018-03-16T03:52:17.721Z,5.33
2018-03-16T03:54:45.486Z,3.73
2018-03-16T03:57:14.267Z,6.13
2018-03-16T03:59:42.410Z,4.10
2018-03-16T04:02:11.554Z,7.37
2018-03-16T04:04:39.771Z,5.47
2018-03-16T04:07:08.096Z,5.83
2018-03-16T04:09:36.150Z,4.60
2018-03-16T04:12:03.931Z,6.03
2018-03-16T04:14:32.066Z,5.53
2018-03-16T04:17:00.094Z,4.27
2018-03-16T04:19:28.541Z,6.50
2018-03-16T04:21:56.524Z,7.07
2018-03-16T04:24:24.623Z,4.73
2018-03-16T04:26:52.346Z,5.57
2018-03-16T04:29:20.294Z,4.50
2018-03-16T04:31:48.608Z,4.80
2018-03-16T04:34:16.971Z,5.57
2018-03-16T04:36:45.596Z,5.07
2018-03-16T04:39:14.393Z,4.53
2018-03-16T04:41:44.046Z,6.60
2018-03-16T04:44:12.586Z,5.13
2018-03-16T04:46:40.840Z,4.87
2018-03-16T04:49:08.764Z,5.27
2018-03-16T04:51:37.023Z,5.33
2018-03-16T04:54:05.471Z,4.00
2018-03-16T04:56:33.821Z,4.60
2018-03-16T04:59:02.069Z,6.57
2018-03-16T05:01:30.234Z,5.40
2018-03-16T05:03:58.128Z,4.13
2018-03-16T05:06:26.591Z,3.90
2018-03-16T05:08:54.394Z,5.93
2018-03-16T05:11:22.243Z,6.07
2018-03-16T05:13:51.444Z,4.63
2018-03-16T05:16:19.241Z,4.73
2018-03-16T05:18:46.808Z,4.97
2018-03-16T05:21:14.986Z,7.33
2018-03-16T05:23:43.147Z,3.90
2018-03-16T05:26:10.900Z,8.20
2018-03-16T05:28:38.660Z,7.00
2018-03-16T05:31:07.613Z,4.87
2018-03-16T05:33:35.243Z,4.60
2018-03-16T05:36:03.477Z,5.30
2018-03-16T05:38:31.111Z,6.23
2018-03-16T05:41:00.097Z,5.37
2018-03-16T05:43:28.097Z,5.27
2018-03-16T05:45:55.701Z,5.17
2018-03-16T05:48:23.421Z,4.63
2018-03-16T05:50:50.977Z,4.70
2018-03-16T05:53:19.330Z,5.20
2018-03-16T05:55:46.924Z,9.47
2018-03-16T05:58:14.445Z,4.40
2018-03-16T06:00:43.416Z,5.73
2018-03-16T06:03:10.928Z,4.53
2018-03-16T06:05:38.563Z,4.77
2018-03-16T06:08:06.891Z,4.07
2018-03-16T06:10:35.035Z,4.23
2018-03-16T06:13:03.035Z,3.60
2018-03-16T06:15:31.337Z,4.00
2018-03-16T06:17:58.839Z,4.70
2018-03-16T06:20:27.081Z,4.87
2018-03-16T06:22:54.610Z,4.63
2018-03-16T06:25:22.236Z,5.60
2018-03-16T06:27:49.829Z,3.90
2018-03-16T06:30:17.431Z,4.30
2018-03-16T06:32:44.995Z,4.70
2018-03-16T06:35:13.212Z,4.83
2018-03-16T06:37:41.363Z,5.10
2018-03-16T06:40:08.950Z,4.73
2018-03-16T06:42:36.354Z,3.60
2018-03-16T06:45:04.500Z,4.60
2018-03-16T06:47:32.230Z,5.73
2018-03-16T06:49:59.858Z,3.93
2018-03-16T06:52:29.028Z,3.80
2018-03-16T06:54:56.479Z,6.97
2018-03-16T06:57:24.047Z,4.20
2018-03-16T06:59:51.588Z,4.80
2018-03-16T07:02:19.591Z,3.90
2018-03-16T07:04:48.490Z,5.93
2018-03-16T07:07:16.135Z,4.83
2018-03-16T07:09:43.950Z,3.97
2018-03-16T07:12:11.854Z,4.77
2018-03-16T07:14:39.411Z,5.23
2018-03-16T07:17:06.981Z,4.77
2018-03-16T07:19:34.461Z,5.23
2018-03-16T07:22:01.889Z,4.83
2018-03-16T07:24:29.517Z,4.27
2018-03-16T07:26:57.138Z,5.70
2018-03-16T07:29:25.156Z,3.60
2018-03-16T07:31:52.677Z,4.50
2018-03-16T07:34:20.529Z,5.47
2018-03-16T07:36:48.829Z,5.17
2018-03-16T07:39:17.188Z,4.20
2018-03-16T07:41:45.620Z,4.43
2018-03-16T07:44:13.602Z,4.50
2018-03-16T07:46:40.995Z,3.67
2018-03-16T07:49:09.068Z,3.97
2018-03-16T07:51:36.589Z,4.90
2018-03-16T07:54:04.066Z,5.40
2018-03-16T07:56:31.784Z,3.90
2018-03-16T07:58:59.310Z,3.40
2018-03-16T08:01:27.647Z,4.00
2018-03-16T08:03:55.198Z,4.30
2018-03-16T08:06:22.764Z,4.07
2018-03-16T08:08:50.233Z,3.00
2018-03-16T08:11:18.323Z,3.70
2018-03-16T08:13:46.799Z,6.07
2018-03-16T08:16:15.504Z,4.73
2018-03-16T08:18:43.149Z,4.80
2018-03-16T08:21:10.945Z,4.17
2018-03-16T08:23:38.652Z,3.87
2018-03-16T08:26:06.165Z,3.67
2018-03-16T08:28:34.390Z,5.00
2018-03-16T08:31:02.813Z,3.97
2018-03-16T08:33:31.579Z,3.63
2018-03-16T08:35:59.105Z,3.90
2018-03-16T08:38:26.664Z,4.83
2018-03-16T08:40:54.270Z,4.37
2018-03-16T08:43:21.830Z,4.37
2018-03-16T08:45:50.381Z,3.67
2018-03-16T08:48:18.604Z,3.50
2018-03-16T08:50:46.070Z,3.90
2018-03-16T08:53:13.594Z,5.57
2018-03-16T08:55:41.724Z,5.03
2018-03-16T08:58:09.438Z,4.50
2018-03-16T09:00:37.623Z,4.23
2018-03-16T09:03:05.806Z,3.53
2018-03-16T09:05:33.300Z,4.43
2018-03-16T09:08:00.876Z,4.20
2018-03-16T09:10:28.371Z,4.73
2018-03-16T09:12:57.766Z,4.20
2018-03-16T09:15:25.916Z,4.13
2018-03-16T09:17:53.655Z,4.57
2018-03-16T09:20:21.367Z,3.87
2018-03-16T09:22:48.892Z,3.97
2018-03-16T09:25:16.676Z,3.70
2018-03-16T09:27:44.158Z,6.70
2018-03-16T09:30:12.891Z,4.20
2018-03-16T09:32:41.430Z,4.80
2018-03-16T09:35:09.319Z,4.73
2018-03-16T09:37:37.440Z,4.00
2018-03-16T09:40:05.349Z,4.27
2018-03-16T09:42:33.824Z,4.30
2018-03-16T09:45:01.367Z,6.20
2018-03-16T09:47:29.745Z,4.53
2018-03-16T09:49:58.284Z,5.40
2018-03-16T09:52:27.217Z,4.13
2018-03-16T09:54:55.001Z,4.00
2018-03-16T09:57:22.862Z,4.53
2018-03-16T09:59:50.658Z,4.37
2018-03-16T10:02:18.515Z,3.87
2018-03-16T10:04:47.152Z,4.17
2018-03-16T10:07:14.648Z,3.70
2018-03-16T10:09:42.914Z,4.13
2018-03-16T10:12:10.404Z,4.30
2018-03-16T10:14:37.904Z,3.50
2018-03-16T10:17:05.460Z,5.83
2018-03-16T10:19:34.047Z,3.30
2018-03-16T10:22:03.118Z,5.20
2018-03-16T10:24:30.561Z,3.90
2018-03-16T10:26:58.873Z,5.20
2018-03-16T10:29:26.655Z,3.90
2018-03-16T10:31:54.370Z,5.83
2018-03-16T10:34:23.066Z,4.73
2018-03-16T10:36:50.786Z,3.90
2018-03-16T10:39:18.236Z,4.60
2018-03-16T10:41:45.777Z,4.60
2018-03-16T10:44:14.146Z,4.80
2018-03-16T10:46:41.806Z,4.90
2018-03-16T10:49:09.295Z,5.77
2018-03-16T10:51:36.643Z,6.90
2018-03-16T10:54:05.161Z,4.57
2018-03-16T10:56:32.609Z,6.80
2018-03-16T10:59:00.023Z,5.03
2018-03-16T11:01:27.702Z,4.70
2018-03-16T11:03:55.361Z,9.53
2018-03-16T11:06:22.910Z,9.60
2018-03-16T11:08:50.412Z,8.57
2018-03-16T11:11:18.077Z,10.60
2018-03-16T11:13:45.597Z,7.90
2018-03-16T11:16:13.447Z,8.57
2018-03-16T11:18:40.837Z,10.70
2018-03-16T11:21:08.994Z,6.67
2018-03-16T11:23:36.456Z,8.07
2018-03-16T11:26:04.301Z,8.33
2018-03-16T11:28:31.988Z,14.53
2018-03-16T11:31:00.536Z,12.57
2018-03-16T11:33:28.233Z,6.60
2018-03-16T11:35:56.022Z,6.13
2018-03-16T11:38:24.760Z,5.53
2018-03-16T11:40:52.642Z,6.50
2018-03-16T11:43:20.357Z,7.07
2018-03-16T11:45:48.457Z,8.83
2018-03-16T11:48:17.877Z,8.63
2018-03-16T11:50:45.804Z,8.90
2018-03-16T11:53:13.661Z,7.70
2018-03-16T11:55:42.711Z,6.57
2018-03-16T11:58:10.376Z,11.77
2018-03-16T12:00:38.995Z,13.40
2018-03-16T12:03:07.935Z,16.73
2018-03-16T12:05:35.847Z,15.87
2018-03-16T12:08:03.717Z,10.50
2018-03-16T12:10:31.971Z,16.30
2018-03-16T12:12:59.875Z,12.37
2018-03-16T12:15:27.940Z,13.67
2018-03-16T12:17:56.802Z,18.60
2018-03-16T12:20:24.846Z,21.07
2018-03-16T12:22:52.719Z,14.03
2018-03-16T12:25:21.327Z,13.67
2018-03-16T12:27:49.140Z,18.33
2018-03-16T12:30:17.753Z,13.50
2018-03-16T12:32:45.974Z,8.63
2018-03-16T12:35:14.126Z,12.93
2018-03-16T12:37:41.985Z,11.63
2018-03-16T12:40:10.626Z,9.47
2018-03-16T12:42:39.854Z,15.30
2018-03-16T12:45:09.093Z,10.77
2018-03-16T12:47:38.653Z,12.40
2018-03-16T12:50:06.700Z,10.73
2018-03-16T12:52:34.693Z,14.13
2018-03-16T12:55:02.555Z,18.45
2018-03-16T15:47:49.442Z,34.83
2018-03-16T17:33:53.205Z,18.73
2018-03-16T17:36:21.550Z,15.80
2018-03-16T17:38:49.073Z,18.03
2018-03-16T17:41:17.727Z,17.63
2018-03-16T17:43:45.491Z,15.40
2018-03-16T17:46:13.170Z,14.53
2018-03-16T17:48:40.733Z,10.93
2018-03-16T17:51:08.403Z,14.07
2018-03-16T17:53:36.926Z,12.57
2018-03-16T17:56:04.469Z,11.37
2018-03-16T17:58:32.001Z,14.33
2018-03-16T18:00:59.741Z,19.20
2018-03-16T18:03:27.501Z,20.00
2018-03-16T18:05:55.065Z,10.60
2018-03-16T18:08:22.669Z,17.13
2018-03-16T18:10:50.964Z,14.90
2018-03-16T18:13:18.574Z,16.80
2018-03-16T18:15:47.349Z,12.90
2018-03-16T18:18:16.122Z,13.30
2018-03-16T18:20:43.658Z,17.93
2018-03-16T18:23:11.462Z,17.77
2018-03-16T18:25:39.113Z,15.47
2018-03-16T18:28:07.011Z,11.57
2018-03-16T18:30:34.623Z,14.20
2018-03-16T18:33:02.389Z,11.13
2018-03-16T18:35:29.945Z,14.17
2018-03-16T18:37:57.524Z,13.70
2018-03-16T18:40:25.079Z,11.63
2018-03-16T18:42:52.681Z,12.40
2018-03-16T18:45:21.087Z,12.47
2018-03-16T18:47:49.347Z,10.37
2018-03-16T18:50:17.639Z,10.50
2018-03-16T18:52:45.159Z,14.10
2018-03-16T18:55:12.721Z,10.93
2018-03-16T18:57:41.175Z,13.40
2018-03-16T19:00:08.948Z,13.27
2018-03-16T19:02:36.482Z,13.40
2018-03-16T19:05:04.506Z,13.20
2018-03-16T19:07:33.649Z,12.07
2018-03-16T19:10:01.998Z,10.90
2018-03-16T19:12:30.306Z,9.10
2018-03-16T19:14:57.896Z,8.70
2018-03-16T19:17:26.314Z,12.07
2018-03-16T19:19:53.957Z,13.10
2018-03-16T19:22:21.497Z,10.60
2018-03-16T19:24:49.464Z,10.40
2018-03-16T19:27:23.888Z,12.83
2018-03-16T19:29:51.375Z,8.53
2018-03-16T19:32:18.860Z,11.97
2018-03-16T19:34:46.451Z,14.43
2018-03-16T19:37:14.039Z,7.27
2018-03-16T19:39:41.677Z,8.60
2018-03-16T19:42:09.177Z,8.80
2018-03-16T19:44:36.785Z,8.80
2018-03-16T19:47:04.345Z,10.27
2018-03-16T19:49:31.865Z,8.93
2018-03-16T19:52:00.209Z,10.80
2018-03-16T19:54:27.908Z,8.67
2018-03-16T19:56:55.665Z,9.67
2018-03-16T19:59:23.999Z,10.17
2018-03-16T20:01:51.571Z,9.17
2018-03-16T20:04:19.052Z,8.80
2018-03-16T20:06:46.651Z,7.60
2018-03-16T20:09:14.350Z,6.87
2018-03-16T20:27:58.219Z,11.10
2018-03-16T20:30:25.883Z,7.70
2018-03-16T20:32:53.444Z,7.53
2018-03-16T20:35:21.095Z,8.07
2018-03-16T20:37:48.650Z,8.80
2018-03-16T20:40:16.976Z,8.20
2018-03-16T20:42:44.544Z,7.60
2018-03-16T20:45:12.113Z,9.17
2018-03-16T20:47:39.663Z,6.47
2018-03-16T20:50:07.223Z,8.43
2018-03-16T20:52:35.430Z,8.63
2018-03-16T20:55:03.017Z,11.87
2018-03-16T20:57:30.545Z,5.57
2018-03-16T20:59:58.853Z,7.47
2018-03-16T21:02:26.391Z,5.07
2018-03-16T21:04:54.766Z,9.57
2018-03-16T21:07:22.268Z,6.83
2018-03-16T21:09:49.832Z,6.57
2018-03-16T21:12:17.381Z,7.20
2018-03-16T21:14:45.627Z,6.70
2018-03-16T21:17:13.300Z,8.73
2018-03-16T21:19:41.640Z,8.03
2018-03-16T21:22:09.228Z,7.60
2018-03-16T21:24:37.582Z,6.43
2018-03-16T21:27:05.098Z,7.03
2018-03-16T21:29:33.421Z,5.73
2018-03-16T21:32:01.651Z,5.53
2018-03-16T21:34:29.467Z,7.90
2018-03-16T21:36:56.994Z,10.50
2018-03-16T21:39:24.597Z,5.37
2018-03-16T21:41:52.183Z,5.17
2018-03-16T21:44:19.727Z,8.67
2018-03-16T21:46:47.508Z,8.27
2018-03-16T21:49:15.135Z,6.67
2018-03-16T21:51:43.191Z,7.33
2018-03-16T21:54:11.093Z,9.20
2018-03-16T21:56:38.761Z,10.10
2018-03-16T21:59:06.293Z,6.97
2018-03-16T22:01:34.638Z,9.73
2018-03-16T22:04:03.268Z,7.83
2018-03-16T22:06:30.890Z,5.60
2018-03-16T22:08:58.386Z,5.73
2018-03-16T22:11:25.956Z,7.30
2018-03-16T22:13:53.460Z,7.20
2018-03-16T22:16:20.979Z,11.50
2018-03-16T22:18:48.546Z,9.70
2018-03-16T22:21:16.887Z,7.20
2018-03-16T22:23:44.488Z,6.47
2018-03-16T22:26:13.147Z,6.60
2018-03-16T22:28:41.581Z,8.53
2018-03-16T22:31:09.202Z,10.27
2018-03-16T22:33:36.713Z,7.67
2018-03-16T22:36:05.322Z,11.57
2018-03-16T22:38:33.040Z,7.30
2018-03-16T22:41:01.342Z,8.60
2018-03-16T22:43:29.080Z,13.50
2018-03-16T22:45:57.051Z,8.50
2018-03-16T22:48:25.319Z,8.70
2018-03-16T22:50:53.162Z,10.60
2018-03-16T22:53:20.852Z,10.73
2018-03-16T22:55:48.345Z,11.13
2018-03-16T22:58:16.100Z,12.30
2018-03-16T23:00:43.684Z,8.77
2018-03-16T23:03:11.314Z,11.87
2018-03-16T23:05:38.879Z,12.00
2018-03-16T23:08:06.516Z,14.27
2018-03-16T23:10:34.239Z,11.73
2018-03-16T23:13:01.771Z,10.00
2018-03-16T23:15:29.366Z,16.33
2018-03-16T23:17:56.965Z,9.17
2018-03-16T23:20:25.695Z,10.37
2018-03-16T23:22:53.310Z,16.80
2018-03-16T23:25:21.046Z,9.90
2018-03-16T23:27:48.719Z,12.10
2018-03-16T23:30:16.979Z,7.67
2018-03-16T23:32:44.490Z,11.77
2018-03-16T23:35:12.158Z,11.00
2018-03-16T23:37:40.557Z,16.10
2018-03-16T23:40:08.100Z,12.60
2018-03-16T23:42:35.652Z,6.50
2018-03-16T23:45:03.326Z,8.30
2018-03-16T23:47:31.704Z,11.53
2018-03-16T23:49:59.258Z,13.17
2018-03-16T23:52:26.986Z,6.80
2018-03-16T23:54:54.536Z,7.17
2018-03-16T23:57:22.251Z,11.97
2018-03-16T23:59:49.767Z,8.97
